Time;durP1;ratioP1;P1;durP2;ratioP2;P2;SDS_P1;SDS_P2;PMS_P1;PMS_P2;Temp;Humidity;BMP_temperature;BMP_pressure;BME280_temperature;BME280_humidity;BME280_pressure;Samples;Min_cycle;Max_cycle;Signal;HPM_P1;HPM_P2
2022/06/18 00:02:23;;;;;;;8.77;1.50;;;;;;;23.57;43.04;101027.41;5014864;28;20205;-65
2022/06/18 00:04:52;;;;;;;4.33;1.60;;;;;;;23.51;43.30;101022.84;5021241;28;20248;-64
2022/06/18 00:07:23;;;;;;;2.78;1.75;;;;;;;23.38;43.79;101028.34;5017284;28;20220;-64
2022/06/18 00:09:57;;;;;;;5.90;1.77;;;;;;;23.41;43.39;101025.19;5021796;28;20209;-63
2022/06/18 00:15:17;;;;;;;4.63;1.60;;;;;;;23.32;43.71;101018.38;5023452;28;21072;-62
2022/06/18 00:17:45;;;;;;;4.77;1.67;;;;;;;23.27;43.57;101013.63;5026279;28;20878;-64
2022/06/18 00:20:16;;;;;;;5.13;1.53;;;;;;;23.26;43.70;101014.69;5018727;28;20248;-63
2022/06/18 00:22:47;;;;;;;4.53;1.63;;;;;;;23.24;43.51;101008.66;5021559;28;20647;-64
2022/06/18 00:25:20;;;;;;;2.97;1.70;;;;;;;23.26;43.50;101009.25;5026193;28;20229;-64
2022/06/18 00:27:48;;;;;;;5.10;1.73;;;;;;;23.13;43.74;101010.16;5024440;28;20307;-63
2022/06/18 00:30:18;;;;;;;4.20;1.90;;;;;;;23.02;44.43;101008.19;5026376;28;20676;-63
2022/06/18 00:32:46;;;;;;;3.63;1.40;;;;;;;22.92;44.71;101006.97;5021318;28;20231;-63
2022/06/18 00:35:16;;;;;;;4.53;1.40;;;;;;;22.79;45.38;101003.28;5016961;28;20757;-63
2022/06/18 00:37:44;;;;;;;5.03;1.48;;;;;;;22.65;45.29;100996.25;5019791;28;20658;-63
2022/06/18 00:40:20;;;;;;;3.47;1.70;;;;;;;22.56;45.45;100985.91;5024112;28;20220;-63
2022/06/18 00:42:49;;;;;;;2.87;1.60;;;;;;;22.44;45.74;100993.81;5020704;28;20235;-64
2022/06/18 00:45:21;;;;;;;5.73;1.70;;;;;;;22.36;45.81;100991.38;5018922;28;20205;-63
2022/06/18 00:47:58;;;;;;;3.83;1.43;;;;;;;22.28;46.23;100988.91;5021865;28;20286;-63
2022/06/18 00:50:31;;;;;;;3.57;1.67;;;;;;;22.31;46.10;100986.59;5006207;28;20919;-63
2022/06/18 00:53:06;;;;;;;5.00;1.43;;;;;;;22.46;45.55;100989.03;5021254;28;20588;-63
2022/06/18 00:55:40;;;;;;;3.97;1.57;;;;;;;22.52;45.17;100980.91;5021024;28;20240;-63
2022/06/18 00:58:13;;;;;;;4.23;1.60;;;;;;;22.58;44.73;100995.47;5021988;28;20300;-63
2022/06/18 01:00:44;;;;;;;6.27;1.63;;;;;;;22.59;44.57;100993.59;5018277;28;20217;-63
2022/06/18 01:03:27;;;;;;;3.23;1.57;;;;;;;22.61;44.27;100989.59;5006596;28;20206;-63
2022/06/18 01:05:59;;;;;;;10.13;2.00;;;;;;;22.65;44.40;100993.56;5015064;28;20679;-64
2022/06/18 01:08:30;;;;;;;3.13;1.27;;;;;;;22.66;44.42;100995.22;5021502;28;20645;-63
2022/06/18 01:11:01;;;;;;;7.23;1.70;;;;;;;22.54;44.34;100988.81;5019688;28;20277;-63
2022/06/18 01:13:33;;;;;;;3.93;1.60;;;;;;;22.50;44.62;100982.19;5019519;28;20214;-63
2022/06/18 01:16:02;;;;;;;3.47;1.53;;;;;;;22.43;44.97;100981.34;5019735;28;20308;-65
2022/06/18 01:18:31;;;;;;;3.10;1.20;;;;;;;22.38;44.99;100983.88;5023425;28;20674;-63
2022/06/18 01:21:07;;;;;;;4.93;1.63;;;;;;;22.41;44.77;100978.06;5020539;28;20852;-63
2022/06/18 01:23:41;;;;;;;3.77;1.37;;;;;;;22.46;44.69;100968.25;5023808;28;20233;-63
2022/06/18 01:26:11;;;;;;;4.43;1.97;;;;;;;22.49;44.52;100964.31;5019726;28;20206;-63
2022/06/18 01:28:39;;;;;;;5.23;1.93;;;;;;;22.49;44.53;100961.59;5016962;28;20651;-63
2022/06/18 01:31:08;;;;;;;5.43;2.00;;;;;;;22.49;44.89;100961.59;5017782;28;20233;-63
2022/06/18 01:33:37;;;;;;;7.07;1.93;;;;;;;22.49;44.50;100969.72;5020649;28;20225;-63
2022/06/18 01:36:08;;;;;;;3.57;1.70;;;;;;;22.48;44.42;100968.06;5022145;28;20218;-63
2022/06/18 01:38:43;;;;;;;6.73;2.10;;;;;;;22.48;44.44;100966.19;5020114;28;20211;-63
2022/06/18 01:44:09;;;;;;;6.07;2.50;;;;;;;22.49;44.63;100958.91;5017665;28;20233;-63
2022/06/18 01:46:41;;;;;;;9.33;1.90;;;;;;;22.48;44.35;100958.06;5018400;28;20243;-63
2022/06/18 01:49:14;;;;;;;7.33;2.17;;;;;;;22.47;44.65;100956.41;5019388;28;20201;-62
2022/06/18 01:51:47;;;;;;;6.53;2.20;;;;;;;22.48;44.15;100962.66;5024223;28;20312;-62
2022/06/18 01:54:18;;;;;;;5.47;2.03;;;;;;;22.47;44.28;100955.59;5017106;28;20233;-62
2022/06/18 01:56:55;;;;;;;10.40;2.27;;;;;;;22.45;44.07;100963.91;5017895;28;20201;-62
2022/06/18 01:59:25;;;;;;;7.73;1.90;;;;;;;22.45;44.29;100963.91;5017944;28;20221;-62
2022/06/18 02:01:53;;;;;;;6.03;1.87;;;;;;;22.45;44.40;100963.06;5022150;28;20212;-63
2022/06/18 02:04:22;;;;;;;5.47;1.50;;;;;;;22.42;44.01;100966.22;5020071;28;20233;-63
2022/06/18 02:06:51;;;;;;;3.93;1.80;;;;;;;22.38;44.12;100963.09;5020258;28;20215;-63
2022/06/18 02:09:32;;;;;;;5.63;1.90;;;;;;;22.37;43.88;100958.72;5019657;28;20237;-62
2022/06/18 02:12:03;;;;;;;3.50;1.57;;;;;;;22.36;44.16;100954.38;5021863;28;20198;-63
2022/06/18 02:14:34;;;;;;;2.87;1.50;;;;;;;22.36;43.81;100964.34;5018428;28;20592;-62
2022/06/18 02:17:06;;;;;;;5.00;2.23;;;;;;;22.37;43.74;100956.03;5021658;28;20728;-62
2022/06/18 02:19:36;;;;;;;6.43;2.20;;;;;;;22.37;43.94;100955.19;5023648;28;20334;-64
2022/06/18 02:22:07;;;;;;;5.20;2.00;;;;;;;22.34;43.84;100955.66;5025243;28;20221;-63
2022/06/18 02:24:36;;;;;;;6.10;1.63;;;;;;;22.35;43.60;100951.88;5020217;28;20973;-63
2022/06/18 02:27:06;;;;;;;4.27;1.80;;;;;;;22.36;43.72;100954.38;5021680;28;20668;-64
2022/06/18 02:29:35;;;;;;;4.70;1.87;;;;;;;22.37;43.45;100955.19;5022275;28;20231;-64
2022/06/18 02:32:07;;;;;;;4.57;1.60;;;;;;;22.38;43.30;100946.06;5020630;28;20298;-63
2022/06/18 02:34:35;;;;;;;5.20;1.77;;;;;;;22.36;43.60;100945.44;5017881;28;20721;-62
2022/06/18 02:37:12;;;;;;;5.63;1.80;;;;;;;22.34;43.61;100950.25;5018800;28;20213;-63
2022/06/18 02:39:54;;;;;;;7.40;1.70;;;;;;;22.35;43.75;100952.72;5019564;28;20221;-63
2022/06/18 02:42:23;;;;;;;3.47;1.57;;;;;;;22.35;43.62;100946.47;5022754;28;21192;-63
2022/06/18 02:44:52;;;;;;;3.17;1.90;;;;;;;22.29;43.80;100952.72;5020830;28;20319;-63
2022/06/18 02:47:21;;;;;;;3.83;1.90;;;;;;;22.26;43.79;100958.56;5017172;28;20351;-63
2022/06/18 02:49:56;;;;;;;5.53;2.03;;;;;;;22.27;43.88;100954.81;5023165;28;20650;-63
2022/06/18 02:52:29;;;;;;;4.23;1.60;;;;;;;22.22;43.77;100957.34;5021109;28;20215;-64
2022/06/18 02:55:10;;;;;;;5.80;2.00;;;;;;;22.15;43.97;100949.25;5018593;28;20237;-62
2022/06/18 02:57:40;;;;;;;4.80;1.97;;;;;;;22.09;44.18;100950.09;5022560;28;20301;-63
2022/06/18 03:00:12;;;;;;;7.87;2.30;;;;;;;22.03;44.72;100945.53;5021116;28;20247;-63
2022/06/18 03:02:40;;;;;;;3.63;1.73;;;;;;;21.98;44.87;100957.00;5021673;28;20205;-63
2022/06/18 03:05:10;;;;;;;3.67;1.70;;;;;;;21.97;45.00;100949.94;5019089;28;20237;-64
2022/06/18 03:07:38;;;;;;;4.30;1.80;;;;;;;21.99;44.64;100950.53;5022902;28;20217;-64
2022/06/18 03:12:54;;;;;;;4.77;1.80;;;;;;;21.95;44.88;100946.56;5019697;28;20231;-64
2022/06/18 03:15:21;;;;;;;10.97;2.17;;;;;;;21.95;44.86;100946.56;5021924;28;20230;-63
2022/06/18 03:17:50;;;;;;;8.10;1.93;;;;;;;21.96;45.48;100947.41;5018487;28;20670;-63
2022/06/18 03:20:21;;;;;;;8.60;2.30;;;;;;;21.90;45.13;100943.66;5019123;28;20653;-63
2022/06/18 03:22:49;;;;;;;4.70;2.30;;;;;;;21.88;45.05;100948.47;5016692;28;20650;-64
2022/06/18 03:25:17;;;;;;;6.57;2.00;;;;;;;21.90;45.01;100954.47;5019911;28;20258;-64
2022/06/18 03:27:45;;;;;;;6.47;1.90;;;;;;;21.93;44.89;100951.34;5018522;28;20636;-64
2022/06/18 03:30:16;;;;;;;6.07;1.83;;;;;;;21.97;44.83;100954.47;5021645;28;20224;-63
2022/06/18 03:32:43;;;;;;;5.50;2.00;;;;;;;21.97;44.74;100949.94;5009815;28;20223;-63
2022/06/18 03:35:11;;;;;;;2.47;1.80;;;;;;;21.95;44.56;100946.56;5011019;28;20205;-63
2022/06/18 03:37:39;;;;;;;5.30;2.20;;;;;;;21.86;45.44;100957.81;5020489;28;20358;-63
2022/06/18 03:40:12;;;;;;;4.03;1.77;;;;;;;21.85;45.28;100951.56;5006035;28;20231;-63
2022/06/18 03:42:41;;;;;;;4.97;1.63;;;;;;;21.85;44.93;100954.28;5000578;28;20700;-64
2022/06/18 03:45:10;;;;;;;2.03;1.50;;;;;;;21.82;45.15;100957.38;5023674;28;20223;-64
2022/06/18 03:47:39;;;;;;;5.10;2.60;;;;;;;21.84;45.11;100965.28;5009527;28;20217;-63
2022/06/18 03:50:08;;;;;;;4.83;1.73;;;;;;;21.88;45.12;100964.66;5024789;28;20271;-63
2022/06/18 03:52:35;;;;;;;6.07;1.77;;;;;;;21.90;45.47;100973.34;5023762;28;20303;-64
2022/06/18 03:55:04;;;;;;;3.57;1.67;;;;;;;21.90;45.08;100959.06;5026045;28;20229;-64
2022/06/18 03:57:32;;;;;;;5.20;2.30;;;;;;;21.91;44.90;100966.91;5022144;28;20208;-63
2022/06/18 03:59:59;;;;;;;6.77;1.63;;;;;;;21.96;45.39;100964.44;5024354;28;20654;-63
2022/06/18 04:02:28;;;;;;;5.70;2.03;;;;;;;22.01;44.94;100956.53;5025645;28;20216;-64
2022/06/18 04:04:57;;;;;;;7.03;1.90;;;;;;;22.05;45.04;100962.38;5021097;28;20282;-65
2022/06/18 04:07:26;;;;;;;4.10;1.77;;;;;;;22.02;44.95;100963.63;5024018;28;20292;-63
2022/06/18 04:09:54;;;;;;;6.60;1.70;;;;;;;22.04;45.24;100956.13;5022128;28;20213;-64
2022/06/18 04:12:22;;;;;;;3.87;1.67;;;;;;;21.98;45.49;100950.75;5020636;28;20209;-64
2022/06/18 04:14:49;;;;;;;6.70;2.30;;;;;;;21.99;45.39;100961.31;5021973;28;20263;-63
2022/06/18 04:17:17;;;;;;;6.70;1.83;;;;;;;22.01;45.36;100959.25;5023468;28;20655;-64
2022/06/18 04:19:46;;;;;;;5.03;1.60;;;;;;;22.03;46.01;100953.66;5011181;28;21114;-63
2022/06/18 04:22:15;;;;;;;5.37;1.93;;;;;;;22.03;45.71;100957.19;5015934;28;20219;-64
2022/06/18 04:24:43;;;;;;;3.70;1.77;;;;;;;21.99;46.15;100958.63;5023891;28;20722;-63
2022/06/18 04:27:11;;;;;;;4.20;2.03;;;;;;;21.97;46.27;100966.13;5023335;28;20236;-64
2022/06/18 04:29:38;;;;;;;4.67;2.13;;;;;;;21.96;46.35;100961.72;5018406;28;20228;-64
2022/06/18 04:32:07;;;;;;;4.80;1.70;;;;;;;22.00;46.36;100968.38;5023290;28;20668;-63
2022/06/18 04:34:35;;;;;;;3.00;1.77;;;;;;;22.02;46.43;100952.81;5023114;28;20209;-63
2022/06/18 04:37:04;;;;;;;6.47;2.17;;;;;;;22.00;46.67;100968.38;5025087;28;20232;-64
2022/06/18 04:39:33;;;;;;;3.70;1.80;;;;;;;22.03;46.74;100965.28;5030233;28;20796;-64
2022/06/18 04:42:01;;;;;;;5.07;2.20;;;;;;;22.04;46.65;100960.72;5024046;28;20248;-64
2022/06/18 04:44:29;;;;;;;6.57;2.37;;;;;;;22.07;46.96;100955.72;5024452;28;20215;-63
2022/06/18 04:46:57;;;;;;;4.83;2.00;;;;;;;22.09;46.99;100956.31;5024397;28;20323;-63
2022/06/18 04:49:25;;;;;;;3.73;1.90;;;;;;;22.12;46.99;100952.38;5027700;28;20217;-64
2022/06/18 04:51:52;;;;;;;3.17;1.80;;;;;;;22.04;47.07;100953.44;5020497;28;20210;-63
2022/06/18 04:54:20;;;;;;;5.20;2.03;;;;;;;21.95;47.53;100951.97;5010201;28;20238;-63
2022/06/18 04:56:49;;;;;;;4.23;1.93;;;;;;;21.93;48.07;100953.22;5021562;28;20213;-63
2022/06/18 04:59:17;;;;;;;5.83;2.10;;;;;;;21.88;48.49;100953.84;5020842;28;20216;-63
2022/06/18 05:01:47;;;;;;;2.83;1.67;;;;;;;21.78;49.04;100959.69;5018643;28;20216;-63
2022/06/18 05:04:14;;;;;;;3.77;2.00;;;;;;;21.78;49.53;100950.75;5011923;28;20256;-64
2022/06/18 05:06:42;;;;;;;4.67;2.20;;;;;;;21.79;49.44;100955.13;5021216;28;20240;-64
2022/06/18 05:09:14;;;;;;;3.90;2.20;;;;;;;21.81;49.64;100954.91;5023085;28;20236;-64
2022/06/18 05:11:42;;;;;;;7.60;2.30;;;;;;;21.85;49.30;100951.56;5026520;28;20303;-63
2022/06/18 05:14:12;;;;;;;4.10;1.77;;;;;;;21.83;49.42;100950.94;5025376;28;20228;-63
2022/06/18 05:16:39;;;;;;;12.20;2.30;;;;;;;21.86;49.82;100947.84;5022429;28;20209;-63
2022/06/18 05:19:19;;;;;;;4.93;2.20;;;;;;;21.90;49.57;100935.56;5021200;28;20240;-63
2022/06/18 05:21:46;;;;;;;6.93;2.50;;;;;;;21.92;50.09;100929.94;5021720;28;20204;-63
2022/06/18 05:24:14;;;;;;;6.37;2.10;;;;;;;21.94;50.03;100934.09;5022697;28;20893;-65
2022/06/18 05:26:49;;;;;;;5.37;2.43;;;;;;;21.96;49.83;100942.00;5017493;28;20239;-63
2022/06/18 05:29:25;;;;;;;4.60;2.47;;;;;;;21.94;50.00;100934.09;5017980;28;20208;-64
2022/06/18 05:31:55;;;;;;;6.90;3.03;;;;;;;21.98;50.36;100939.97;5024238;28;20252;-63
2022/06/18 05:34:23;;;;;;;5.47;3.00;;;;;;;22.01;50.49;100931.41;5027486;28;20697;-64
2022/06/18 05:36:51;;;;;;;5.83;2.87;;;;;;;22.05;50.45;100938.91;5028544;28;20201;-64
2022/06/18 05:39:20;;;;;;;5.67;2.77;;;;;;;22.09;50.40;100932.00;5023916;28;20278;-64
2022/06/18 05:41:48;;;;;;;4.63;2.53;;;;;;;22.11;50.54;100938.03;5020435;28;20212;-64
2022/06/18 05:44:15;;;;;;;6.47;2.40;;;;;;;22.17;50.77;100939.06;5026352;28;20688;-64
2022/06/18 05:47:33;;;;;;;7.27;2.93;;;;;;;22.28;50.26;100934.88;5022512;28;20228;-64
2022/06/18 05:50:04;;;;;;;5.67;2.67;;;;;;;22.37;50.32;100930.88;5022702;28;20658;-64
2022/06/18 05:52:32;;;;;;;5.50;2.90;;;;;;;22.43;50.18;100927.31;5027230;28;20913;-64
2022/06/18 05:55:01;;;;;;;5.87;2.80;;;;;;;22.47;50.36;100931.25;5024759;28;20674;-63
2022/06/18 05:57:29;;;;;;;5.30;3.27;;;;;;;22.60;50.25;100928.50;5022732;28;20716;-63
2022/06/18 05:59:57;;;;;;;3.87;2.93;;;;;;;22.69;49.79;100932.59;5022429;28;20231;-63
2022/06/18 06:02:25;;;;;;;7.13;2.73;;;;;;;22.80;49.68;100934.66;5018576;28;20296;-63
2022/06/18 06:04:53;;;;;;;12.10;3.30;;;;;;;22.86;49.53;100935.66;5021402;28;20205;-62
2022/06/18 06:07:24;;;;;;;8.93;3.20;;;;;;;22.93;49.30;100938.34;5022189;28;20754;-62
2022/06/18 06:12:39;;;;;;;8.60;3.00;;;;;;;23.08;48.71;100931.56;5022951;28;20251;-63
2022/06/18 06:15:08;;;;;;;7.90;2.93;;;;;;;23.12;48.28;100932.78;5022962;28;20234;-63
2022/06/18 06:17:37;;;;;;;6.27;2.90;;;;;;;23.09;48.61;100926.97;5027093;28;20296;-61
2022/06/18 06:20:09;;;;;;;8.02;3.13;;;;;;;23.18;48.04;100931.06;5028339;28;20216;-63
2022/06/18 06:22:39;;;;;;;6.73;3.03;;;;;;;23.27;48.22;100924.34;5032104;28;20227;-63
2022/06/18 06:25:07;;;;;;;7.90;2.67;;;;;;;23.30;48.18;100923.09;5027578;28;20303;-64
2022/06/18 06:27:35;;;;;;;5.10;3.30;;;;;;;23.36;47.78;100925.72;5026207;28;20623;-62
2022/06/18 06:30:03;;;;;;;6.77;3.13;;;;;;;23.44;47.35;100924.63;5027451;28;20310;-63
2022/06/18 06:32:37;;;;;;;6.55;2.38;;;;;;;23.51;47.04;100928.94;5024204;28;20200;-63
2022/06/18 06:35:06;;;;;;;6.72;3.17;;;;;;;23.62;46.88;100932.81;5026177;28;20209;-63
2022/06/18 06:37:34;;;;;;;7.32;2.90;;;;;;;23.70;47.17;100927.13;5026299;28;20201;-63
2022/06/18 06:40:04;;;;;;;8.27;3.00;;;;;;;23.74;47.43;100925.63;5027068;28;20208;-64
2022/06/18 06:42:40;;;;;;;9.02;2.67;;;;;;;23.77;47.62;100929.75;5022628;28;20323;-64
2022/06/18 06:45:14;;;;;;;11.15;2.88;;;;;;;23.81;47.59;100928.28;5023897;28;20251;-63
2022/06/18 06:47:42;;;;;;;11.75;3.10;;;;;;;23.88;47.63;100920.91;5023423;28;20793;-64
2022/06/18 06:50:11;;;;;;;6.43;3.03;;;;;;;23.97;47.40;100919.56;5025456;28;20209;-63
2022/06/18 06:52:39;;;;;;;5.25;3.40;;;;;;;24.03;47.60;100918.63;5025490;28;20209;-64
2022/06/18 06:58:00;;;;;;;6.32;3.67;;;;;;;24.17;47.43;100924.75;5029200;28;20255;-63
2022/06/18 07:00:28;;;;;;;7.57;3.03;;;;;;;24.25;47.64;100922.59;5025305;28;20212;-63
2022/06/18 07:02:56;;;;;;;7.55;2.92;;;;;;;24.35;47.55;100916.66;5022933;28;20212;-64
2022/06/18 07:05:28;;;;;;;5.22;2.80;;;;;;;24.41;47.54;100915.72;5027467;28;20834;-63
2022/06/18 07:07:56;;;;;;;6.18;3.30;;;;;;;24.43;47.41;100912.78;5027823;28;20279;-63
2022/06/18 07:10:25;;;;;;;11.20;4.07;;;;;;;24.51;47.43;100905.16;5027398;28;20842;-62
2022/06/18 07:12:53;;;;;;;3.70;2.70;;;;;;;24.57;46.52;100903.41;5025784;28;20211;-62
2022/06/18 07:15:21;;;;;;;7.38;3.05;;;;;;;24.61;45.94;100910.88;5027201;28;20584;-62
2022/06/18 07:17:49;;;;;;;4.57;3.10;;;;;;;24.66;45.86;100908.28;5026417;28;20205;-63
2022/06/18 07:20:18;;;;;;;6.32;3.53;;;;;;;24.72;45.82;100911.94;5024173;28;20427;-63
2022/06/18 07:22:46;;;;;;;5.25;3.15;;;;;;;24.74;45.60;100910.66;5022694;28;20206;-63
2022/06/18 07:25:15;;;;;;;5.35;2.78;;;;;;;24.85;45.38;100906.34;5021912;28;20212;-63
2022/06/18 07:27:45;;;;;;;5.38;3.50;;;;;;;24.90;45.25;100905.63;5027613;28;20271;-63
2022/06/18 07:30:13;;;;;;;12.80;3.25;;;;;;;24.96;45.27;100908.31;5025572;28;20228;-63
2022/06/18 07:32:46;;;;;;;6.53;3.28;;;;;;;25.04;44.66;100893.56;5025262;28;20299;-63
2022/06/18 07:35:19;;;;;;;8.95;3.40;;;;;;;25.16;44.88;100899.00;5025142;28;20209;-64
2022/06/18 07:37:47;;;;;;;6.43;3.17;;;;;;;25.16;44.66;100893.56;5026538;28;20291;-63
2022/06/18 07:40:16;;;;;;;6.85;3.00;;;;;;;25.18;44.61;100886.03;5022642;28;20208;-63
2022/06/18 07:42:48;;;;;;;8.25;3.42;;;;;;;25.33;44.40;100891.84;5020375;28;20328;-63
2022/06/18 07:45:18;;;;;;;7.93;3.10;;;;;;;25.45;44.08;100887.25;5022678;28;20213;-63
2022/06/18 07:47:46;;;;;;;7.50;2.80;;;;;;;25.46;43.92;100880.75;4997830;28;20768;-63
2022/06/18 07:50:15;;;;;;;7.05;2.63;;;;;;;25.56;43.59;100886.41;5020341;28;20580;-62
2022/06/18 07:52:44;;;;;;;7.20;2.90;;;;;;;25.60;43.88;100876.75;5007860;28;20249;-64
2022/06/18 07:55:16;;;;;;;9.77;2.95;;;;;;;25.72;42.82;100885.72;5020855;28;20616;-64
2022/06/18 07:57:46;;;;;;;5.85;2.70;;;;;;;25.71;42.79;100889.50;5002489;28;20687;-63
2022/06/18 08:00:17;;;;;;;4.80;2.50;;;;;;;25.78;42.91;100886.66;5001512;28;20209;-64
2022/06/18 08:02:47;;;;;;;5.63;2.35;;;;;;;25.80;43.28;100882.66;5004824;28;20827;-62
2022/06/18 08:05:28;;;;;;;14.18;2.70;;;;;;;25.93;42.63;100876.16;5020343;28;20205;-64
2022/06/18 08:07:56;;;;;;;8.55;2.40;;;;;;;25.92;43.03;100876.38;5016040;28;20229;-65
2022/06/18 08:10:48;;;;;;;4.57;3.03;;;;;;;25.96;43.25;100869.38;5019844;28;20213;-64
2022/06/18 08:13:17;;;;;;;6.03;2.90;;;;;;;26.00;43.52;100865.13;5018008;28;20212;-64
2022/06/18 08:15:49;;;;;;;10.95;2.40;;;;;;;26.11;43.48;100861.56;5023505;28;20208;-64
2022/06/18 08:18:17;;;;;;;7.53;2.42;;;;;;;26.16;43.96;100862.50;5021738;28;20999;-69
2022/06/18 08:20:56;;;;;;;6.80;2.40;;;;;;;26.31;43.91;100856.56;5023263;28;20642;-66
2022/06/18 08:23:24;;;;;;;13.07;3.17;;;;;;;26.35;43.43;100862.34;5020921;28;20209;-69
2022/06/18 08:25:52;;;;;;;7.80;2.45;;;;;;;26.48;42.69;100851.97;5022870;28;20337;-66
2022/06/18 08:28:21;;;;;;;5.70;2.63;;;;;;;26.65;41.95;100851.22;5022681;28;20233;-67
2022/06/18 08:30:49;;;;;;;5.53;2.55;;;;;;;26.68;41.47;100851.53;5024321;28;20626;-66
2022/06/18 08:33:18;;;;;;;7.47;2.97;;;;;;;26.76;41.22;100859.28;5027021;28;20221;-66
2022/06/18 08:35:49;;;;;;;6.10;2.47;;;;;;;26.89;41.33;100853.56;5026900;28;20836;-67
2022/06/18 08:38:19;;;;;;;12.07;2.70;;;;;;;27.02;41.41;100844.25;5027238;28;20205;-67
2022/06/18 08:40:57;;;;;;;12.50;2.97;;;;;;;27.18;41.01;100835.25;5019843;28;20736;-69
2022/06/18 08:43:48;;;;;;;7.47;2.63;;;;;;;27.28;41.08;100829.13;5028501;28;20267;-68
2022/06/18 08:46:26;;;;;;;3.60;2.20;;;;;;;27.51;40.10;100833.56;5028491;28;20250;-68
2022/06/18 08:49:11;;;;;;;9.95;2.30;;;;;;;27.55;40.40;100835.56;5030184;28;20228;-68
2022/06/18 08:51:49;;;;;;;8.55;2.50;;;;;;;27.65;39.92;100827.53;5033463;28;20283;-68
2022/06/18 08:54:30;;;;;;;6.05;2.20;;;;;;;27.76;39.52;100825.78;5032180;28;20599;-67
2022/06/18 08:57:02;;;;;;;6.00;2.90;;;;;;;27.97;39.43;100829.59;5029497;28;20204;-67
2022/06/18 08:59:45;;;;;;;12.73;2.67;;;;;;;27.96;39.75;100828.75;5028821;28;20201;-68
2022/06/18 09:02:23;;;;;;;6.38;2.83;;;;;;;28.06;40.18;100826.13;5030622;28;20215;-68
2022/06/18 09:05:03;;;;;;;4.38;2.25;;;;;;;28.09;40.45;100825.63;5026283;28;20215;-68
2022/06/18 09:07:58;;;;;;;9.32;2.88;;;;;;;28.34;39.45;100824.28;5028184;28;20209;-67
2022/06/18 09:10:41;;;;;;;5.60;2.58;;;;;;;28.37;39.09;100816.44;5019908;28;20212;-68
2022/06/18 09:13:14;;;;;;;5.75;2.38;;;;;;;28.44;39.13;100813.47;5025627;28;20303;-67
2022/06/18 09:15:48;;;;;;;7.25;2.65;;;;;;;28.72;38.33;100810.47;5023805;28;20259;-68
2022/06/18 09:18:22;;;;;;;3.85;2.10;;;;;;;28.64;38.99;100810.97;5023509;28;20199;-68
2022/06/18 09:20:54;;;;;;;8.63;2.70;;;;;;;28.76;38.78;100803.44;5028178;28;20215;-67
2022/06/18 09:23:31;;;;;;;8.35;2.65;;;;;;;28.90;38.08;100797.56;5023935;28;20227;-68
2022/06/18 09:26:01;;;;;;;5.00;2.40;;;;;;;28.91;38.41;100797.31;5022578;28;20236;-68
2022/06/18 09:28:36;;;;;;;7.90;2.75;;;;;;;29.05;37.47;100790.28;5022955;28;20228;-67
2022/06/18 09:31:11;;;;;;;15.45;3.40;;;;;;;29.11;37.78;100793.91;5021874;28;20359;-64
2022/06/18 09:33:43;;;;;;;8.20;2.83;;;;;;;29.39;37.21;100790.81;5019257;28;20242;-65
2022/06/18 09:36:18;;;;;;;5.05;2.70;;;;;;;29.49;37.08;100787.31;5020337;28;20244;-66
2022/06/18 09:38:52;;;;;;;4.63;2.33;;;;;;;29.49;36.65;100790.88;5025152;28;20322;-65
2022/06/18 09:41:24;;;;;;;6.75;2.67;;;;;;;29.57;36.41;100792.25;5023024;28;20200;-65
2022/06/18 09:43:58;;;;;;;11.85;2.53;;;;;;;29.59;37.38;100781.06;5027207;28;20275;-66
2022/06/18 09:46:34;;;;;;;6.30;2.40;;;;;;;29.76;36.35;100790.72;5021074;28;20200;-65
2022/06/18 09:49:01;;;;;;;10.32;2.20;;;;;;;29.70;36.40;100786.31;5020477;28;20216;-65
2022/06/18 09:51:43;;;;;;;5.05;2.90;;;;;;;29.73;37.04;100779.50;5020267;28;20232;-65
2022/06/18 09:54:13;;;;;;;8.80;2.70;;;;;;;29.77;36.99;100784.16;5024460;28;20240;-66
2022/06/18 09:56:46;;;;;;;5.97;2.75;;;;;;;29.95;35.83;100782.88;5019327;28;20854;-65
2022/06/18 09:59:18;;;;;;;5.18;2.92;;;;;;;30.07;35.83;100774.47;5020386;28;20251;-66
2022/06/18 10:01:53;;;;;;;3.83;2.30;;;;;;;30.22;35.64;100769.00;5026759;28;20307;-67
2022/06/18 10:07:19;;;;;;;4.82;2.70;;;;;;;30.24;36.31;100767.66;5018234;28;20213;-67
2022/06/18 10:09:50;;;;;;;10.23;2.80;;;;;;;30.35;34.47;100768.47;5023099;28;20235;-67
2022/06/18 10:12:23;;;;;;;7.22;2.38;;;;;;;30.59;34.06;100771.56;5020806;28;20218;-68
2022/06/18 10:14:54;;;;;;;6.03;2.08;;;;;;;30.56;34.54;100764.69;5019414;28;20213;-68
2022/06/18 10:17:35;;;;;;;4.70;2.55;;;;;;;30.70;34.40;100764.97;5023778;28;20205;-67
2022/06/18 10:20:13;;;;;;;9.07;2.40;;;;;;;30.70;34.93;100762.22;5019455;28;20213;-67
2022/06/18 10:22:51;;;;;;;4.88;2.72;;;;;;;30.72;33.92;100757.31;5031853;28;20217;-68
2022/06/18 10:25:30;;;;;;;4.65;2.40;;;;;;;30.96;32.94;100750.16;5028793;28;20204;-67
2022/06/18 10:28:08;;;;;;;7.75;3.13;;;;;;;31.00;33.96;100743.03;5023926;28;20256;-67
2022/06/18 10:30:48;;;;;;;4.88;2.25;;;;;;;31.12;33.29;100741.97;5022064;28;20740;-68
2022/06/18 10:33:31;;;;;;;4.07;2.05;;;;;;;31.35;32.44;100736.66;5022610;28;20252;-67
2022/06/18 10:36:07;;;;;;;4.55;2.10;;;;;;;31.28;33.61;100733.41;5026873;28;20204;-69
2022/06/18 10:38:54;;;;;;;3.92;2.17;;;;;;;31.40;34.02;100722.16;5020933;28;20200;-66
2022/06/18 10:41:26;;;;;;;4.00;2.10;;;;;;;31.46;32.85;100721.00;5025499;28;20201;-68
2022/06/18 10:44:13;;;;;;;5.85;2.25;;;;;;;31.43;32.56;100716.09;5025196;28;20201;-68
2022/06/18 10:46:42;;;;;;;5.40;2.13;;;;;;;31.52;32.44;100714.41;5020657;28;20208;-68
2022/06/18 10:49:12;;;;;;;10.68;2.17;;;;;;;31.64;32.62;100716.84;5022006;28;20235;-67
2022/06/18 10:51:45;;;;;;;5.28;2.33;;;;;;;31.75;32.53;100711.00;5023408;28;20209;-67
2022/06/18 10:54:15;;;;;;;4.57;1.73;;;;;;;31.83;31.70;100709.63;5018375;28;20241;-67
2022/06/18 10:56:49;;;;;;;6.65;2.50;;;;;;;31.95;30.84;100701.03;5023058;28;20263;-67
2022/06/18 10:59:28;;;;;;;13.73;4.63;;;;;;;32.18;30.40;100700.38;5020069;28;20692;-67
2022/06/18 11:01:56;;;;;;;7.80;2.33;;;;;;;32.37;29.55;100694.97;5021854;28;20340;-66
2022/06/18 11:04:28;;;;;;;6.13;1.83;;;;;;;32.35;29.96;100698.03;5017131;28;20269;-66
2022/06/18 11:06:59;;;;;;;5.75;2.17;;;;;;;32.46;29.31;100696.00;5018145;28;20723;-66
2022/06/18 11:09:30;;;;;;;5.15;2.45;;;;;;;32.40;29.75;100697.97;5019590;28;20225;-66
2022/06/18 11:12:07;;;;;;;3.83;2.08;;;;;;;32.75;29.44;100687.81;5021026;28;20472;-66
2022/06/18 11:14:41;;;;;;;8.68;2.45;;;;;;;32.62;29.66;100688.47;5019538;28;20247;-65
2022/06/18 11:17:19;;;;;;;13.88;2.13;;;;;;;32.65;29.46;100682.38;5020431;28;20542;-66
2022/06/18 11:19:49;;;;;;;6.85;2.40;;;;;;;32.65;29.82;100687.88;5019463;28;20621;-66
2022/06/18 11:22:22;;;;;;;6.57;2.08;;;;;;;32.68;29.34;100681.81;5018058;28;20208;-65
2022/06/18 11:24:55;;;;;;;4.00;1.55;;;;;;;32.92;28.61;100676.38;5020699;28;20209;-65
2022/06/18 11:27:24;;;;;;;4.80;1.80;;;;;;;32.81;29.54;100664.66;5016579;28;20220;-65
2022/06/18 11:29:54;;;;;;;6.60;2.20;;;;;;;32.84;29.33;100664.09;5021291;28;20237;-66
2022/06/18 11:32:24;;;;;;;7.53;2.33;;;;;;;32.80;29.50;100657.56;5022629;28;20279;-65
2022/06/18 11:35:01;;;;;;;5.88;2.28;;;;;;;32.75;29.87;100660.34;5020183;28;20209;-65
2022/06/18 11:37:31;;;;;;;6.13;2.30;;;;;;;32.83;29.87;100659.72;5016903;28;20254;-65
2022/06/18 11:40:03;;;;;;;6.97;2.20;;;;;;;33.14;28.45;100658.25;5014023;28;20209;-64
2022/06/18 11:42:41;;;;;;;5.25;2.20;;;;;;;33.36;27.32;100651.41;5020312;28;20205;-66
2022/06/18 11:45:30;;;;;;;6.30;2.38;;;;;;;33.24;28.54;100649.94;5015920;28;20236;-66
2022/06/18 11:48:06;;;;;;;5.63;2.50;;;;;;;33.28;28.05;100647.38;5019556;28;20197;-65
2022/06/18 11:50:42;;;;;;;8.45;2.63;;;;;;;33.17;28.74;100635.66;5018250;28;20319;-66
2022/06/18 11:53:24;;;;;;;5.88;2.22;;;;;;;33.11;29.21;100634.09;5016505;28;20262;-65
2022/06/18 11:55:55;;;;;;;11.93;3.00;;;;;;;33.26;27.51;100633.13;5020462;28;20235;-64
2022/06/18 11:58:30;;;;;;;10.68;2.65;;;;;;;33.47;27.67;100622.69;5022630;28;20303;-66
2022/06/18 12:01:04;;;;;;;8.88;2.60;;;;;;;33.49;28.29;100621.28;5018585;28;20203;-67
2022/06/18 12:03:38;;;;;;;10.80;2.67;;;;;;;33.59;27.60;100623.88;5020612;28;20230;-66